Time;durP1;ratioP1;P1;durP2;ratioP2;P2;SDS_P1;SDS_P2;PMS_P1;PMS_P2;Temp;Humidity;BMP_temperature;BMP_pressure;BME280_temperature;BME280_humidity;BME280_pressure;Samples;Min_cycle;Max_cycle;Signal;HPM_P1;HPM_P2
2024/02/15 00:02:21;;;;;;;2.70;2.50;;;10.90;49.70;;;;;;4916240;29;20657;-63
2024/02/15 00:04:47;;;;;;;2.93;2.63;;;10.80;49.70;;;;;;4915755;29;20274;-63
2024/02/15 00:07:14;;;;;;;2.90;2.60;;;10.90;49.80;;;;;;4914799;29;20241;-63
2024/02/15 00:09:40;;;;;;;4.70;2.80;;;10.80;49.50;;;;;;4911403;29;20207;-63
2024/02/15 00:12:07;;;;;;;3.00;2.70;;;10.80;49.40;;;;;;4916193;29;20769;-63
2024/02/15 00:14:34;;;;;;;2.70;2.50;;;10.80;49.20;;;;;;4918829;29;20217;-63
2024/02/15 00:17:02;;;;;;;4.90;2.40;;;10.80;49.20;;;;;;4916903;29;20264;-63
2024/02/15 00:19:29;;;;;;;2.67;2.40;;;10.80;49.20;;;;;;4916159;29;20217;-63
2024/02/15 00:21:56;;;;;;;3.13;2.53;;;10.70;49.00;;;;;;4915835;29;20288;-63
2024/02/15 00:24:23;;;;;;;2.50;2.20;;;10.80;48.90;;;;;;4916418;29;20681;-63
2024/02/15 00:26:50;;;;;;;2.60;2.33;;;10.80;48.80;;;;;;4915410;29;20205;-63
2024/02/15 00:29:18;;;;;;;3.03;2.57;;;10.80;48.50;;;;;;4915849;29;20582;-63
2024/02/15 00:31:44;;;;;;;3.67;2.40;;;10.80;48.70;;;;;;4908532;29;20240;-63
2024/02/15 00:34:19;;;;;;;2.60;2.40;;;10.80;48.60;;;;;;4914743;29;20242;-63
2024/02/15 00:36:44;;;;;;;2.43;2.20;;;10.70;48.70;;;;;;4903326;29;20243;-63
2024/02/15 00:39:11;;;;;;;2.77;2.53;;;10.70;48.60;;;;;;4916042;29;20224;-63
2024/02/15 00:41:41;;;;;;;2.37;2.17;;;10.70;48.40;;;;;;4916106;29;20328;-63
2024/02/15 00:44:08;;;;;;;3.00;2.40;;;10.70;48.60;;;;;;4916583;29;20241;-63
2024/02/15 00:46:36;;;;;;;2.70;2.50;;;10.70;48.80;;;;;;4911889;29;20208;-63
2024/02/15 00:49:03;;;;;;;2.77;2.57;;;10.60;48.80;;;;;;4914470;29;20252;-63
2024/02/15 00:51:30;;;;;;;2.83;2.60;;;10.70;49.00;;;;;;4915798;29;20236;-63
2024/02/15 00:53:56;;;;;;;2.87;2.20;;;10.70;48.70;;;;;;4915760;29;20696;-63
2024/02/15 00:56:24;;;;;;;2.30;2.10;;;10.70;48.80;;;;;;4915702;29;20216;-63
2024/02/15 00:58:50;;;;;;;2.50;2.30;;;10.70;49.30;;;;;;4911170;29;20209;-63
2024/02/15 01:01:17;;;;;;;2.87;2.57;;;10.70;49.10;;;;;;4912673;29;20272;-63
2024/02/15 01:03:43;;;;;;;2.70;2.47;;;10.70;49.00;;;;;;4911999;29;20240;-63
2024/02/15 01:06:10;;;;;;;2.20;2.10;;;10.60;49.10;;;;;;4911818;29;20245;-63
2024/02/15 01:08:36;;;;;;;2.43;2.23;;;10.60;49.10;;;;;;4915685;29;20580;-63
2024/02/15 01:11:04;;;;;;;3.13;2.30;;;10.60;49.20;;;;;;4915400;29;20244;-63
2024/02/15 01:13:30;;;;;;;2.63;2.43;;;10.60;49.60;;;;;;4915077;29;20213;-63
2024/02/15 01:15:57;;;;;;;2.20;2.00;;;10.60;49.60;;;;;;4914852;29;20213;-63
2024/02/15 01:18:23;;;;;;;2.50;2.30;;;10.50;49.50;;;;;;4915946;29;20269;-63
2024/02/15 01:20:50;;;;;;;3.23;1.83;;;10.50;49.50;;;;;;4912402;29;20292;-63
2024/02/15 01:23:17;;;;;;;2.20;2.00;;;10.50;49.50;;;;;;4914737;29;20210;-63
2024/02/15 01:25:43;;;;;;;1.90;1.80;;;10.40;49.40;;;;;;4915049;29;20273;-63
2024/02/15 01:28:11;;;;;;;2.00;1.90;;;10.50;49.50;;;;;;4915115;29;20210;-63
2024/02/15 01:30:37;;;;;;;2.60;2.00;;;10.40;49.40;;;;;;4915336;29;20221;-63
2024/02/15 01:33:04;;;;;;;1.90;1.80;;;10.40;49.40;;;;;;4915477;29;20241;-63
2024/02/15 01:35:30;;;;;;;2.80;2.10;;;10.40;49.50;;;;;;4914132;29;20268;-63
2024/02/15 01:37:57;;;;;;;2.33;2.00;;;10.40;49.40;;;;;;4908865;29;20271;-63
2024/02/15 01:40:23;;;;;;;2.57;2.10;;;10.40;49.40;;;;;;4911919;29;20584;-63
2024/02/15 01:42:50;;;;;;;1.80;1.70;;;10.40;49.40;;;;;;4915012;29;20285;-63
2024/02/15 01:45:17;;;;;;;2.13;1.93;;;10.40;49.40;;;;;;4916057;29;20676;-63
2024/02/15 01:47:43;;;;;;;2.20;2.00;;;10.40;49.40;;;;;;4919141;29;20210;-63
2024/02/15 01:50:10;;;;;;;2.00;1.90;;;10.40;49.40;;;;;;4918998;29;20241;-63
2024/02/15 01:52:36;;;;;;;1.87;1.77;;;10.40;49.40;;;;;;4919223;29;20264;-63
2024/02/15 01:55:07;;;;;;;2.27;2.13;;;10.40;49.40;;;;;;4918655;29;20723;-63
2024/02/15 01:57:34;;;;;;;2.30;2.10;;;10.50;49.50;;;;;;4913394;29;20731;-63
2024/02/15 02:00:00;;;;;;;1.90;1.80;;;10.50;49.50;;;;;;4918065;29;20232;-63
2024/02/15 02:02:27;;;;;;;2.00;1.90;;;10.50;49.50;;;;;;4918406;29;20238;-63
2024/02/15 02:04:54;;;;;;;3.33;2.17;;;10.50;49.50;;;;;;4918678;29;20213;-63
2024/02/15 02:07:21;;;;;;;1.80;1.70;;;10.40;49.40;;;;;;4918491;29;20209;-63
2024/02/15 02:09:47;;;;;;;2.00;1.90;;;10.50;49.50;;;;;;4918851;29;20600;-63
2024/02/15 02:12:14;;;;;;;2.13;2.00;;;10.50;49.50;;;;;;4918097;29;20284;-63
2024/02/15 02:14:40;;;;;;;2.07;1.90;;;10.50;49.50;;;;;;4914295;29;20317;-63
2024/02/15 02:17:08;;;;;;;1.97;1.87;;;10.50;49.50;;;;;;4917934;29;20290;-63
2024/02/15 02:19:37;;;;;;;2.30;2.10;;;10.50;49.50;;;;;;4916360;29;20228;-63
2024/02/15 02:22:05;;;;;;;2.40;2.20;;;10.50;49.50;;;;;;4912919;29;20229;-63
2024/02/15 02:24:33;;;;;;;3.03;2.13;;;10.50;49.50;;;;;;4918143;29;20269;-63
2024/02/15 02:27:00;;;;;;;2.60;2.40;;;10.50;49.50;;;;;;4918543;29;20710;-63
2024/02/15 02:29:28;;;;;;;2.20;2.00;;;10.40;49.40;;;;;;4918517;29;20277;-63
2024/02/15 02:31:55;;;;;;;2.20;2.10;;;10.50;49.50;;;;;;4914366;29;20225;-63
2024/02/15 02:34:21;;;;;;;2.67;1.97;;;10.50;49.50;;;;;;4910392;29;20213;-63
2024/02/15 02:36:50;;;;;;;1.97;1.80;;;10.50;49.20;;;;;;4910335;29;20268;-63
2024/02/15 02:39:17;;;;;;;1.80;1.70;;;10.50;49.50;;;;;;4917854;29;20638;-63
2024/02/15 02:41:43;;;;;;;2.13;1.93;;;10.50;49.50;;;;;;4917642;29;20720;-63
2024/02/15 02:44:10;;;;;;;2.30;2.10;;;10.50;49.50;;;;;;4918530;29;20252;-63
2024/02/15 02:46:36;;;;;;;2.47;2.27;;;10.40;49.40;;;;;;4918083;29;20654;-63
2024/02/15 02:49:04;;;;;;;2.33;1.90;;;10.40;49.40;;;;;;4916253;29;20569;-63
2024/02/15 02:51:30;;;;;;;2.20;2.00;;;10.40;49.40;;;;;;4915617;29;20273;-63
2024/02/15 02:53:57;;;;;;;2.57;2.20;;;10.40;49.40;;;;;;4917491;29;20244;-63
2024/02/15 02:56:24;;;;;;;2.27;2.00;;;10.40;49.20;;;;;;4916275;29;20221;-63
2024/02/15 02:58:50;;;;;;;3.73;2.07;;;10.30;49.20;;;;;;4910410;29;20247;-63
2024/02/15 03:01:18;;;;;;;2.20;2.10;;;10.30;49.30;;;;;;4918326;29;20593;-64
2024/02/15 03:03:44;;;;;;;2.07;1.90;;;10.40;49.40;;;;;;4917717;29;20279;-63
2024/02/15 03:06:11;;;;;;;2.80;2.37;;;10.40;49.30;;;;;;4917516;29;20217;-64
2024/02/15 03:08:38;;;;;;;2.20;2.00;;;10.40;49.20;;;;;;4913419;29;20200;-63
2024/02/15 03:11:04;;;;;;;2.27;2.17;;;10.40;49.30;;;;;;4916085;29;20218;-63
2024/02/15 03:13:31;;;;;;;2.33;2.10;;;10.40;48.90;;;;;;4917361;29;20258;-63
2024/02/15 03:15:57;;;;;;;3.70;2.27;;;10.40;48.80;;;;;;4917556;29;20217;-63
2024/02/15 03:18:24;;;;;;;2.33;2.00;;;10.30;48.90;;;;;;4917561;29;20233;-63
2024/02/15 03:20:50;;;;;;;1.93;1.80;;;10.30;49.30;;;;;;4908562;29;20225;-63
2024/02/15 03:23:17;;;;;;;2.63;2.00;;;10.30;49.30;;;;;;4914472;29;20249;-63
2024/02/15 03:25:43;;;;;;;2.13;1.93;;;10.30;49.30;;;;;;4909068;29;20703;-64
2024/02/15 03:28:10;;;;;;;2.00;1.80;;;10.30;49.30;;;;;;4917447;29;20213;-63
2024/02/15 03:30:36;;;;;;;2.10;1.90;;;10.20;49.20;;;;;;4917167;29;20300;-63
2024/02/15 03:33:05;;;;;;;3.00;2.10;;;10.30;49.20;;;;;;4917322;29;20635;-63
2024/02/15 03:35:32;;;;;;;2.53;2.27;;;10.30;49.20;;;;;;4918659;29;20220;-63
2024/02/15 03:37:58;;;;;;;2.20;2.10;;;10.30;49.30;;;;;;4907950;29;20242;-63
2024/02/15 03:40:26;;;;;;;2.30;2.10;;;10.30;49.30;;;;;;4914011;29;20279;-63
2024/02/15 03:42:53;;;;;;;2.27;2.07;;;10.40;49.40;;;;;;4916364;29;20663;-63
2024/02/15 03:45:20;;;;;;;2.53;2.10;;;10.30;49.10;;;;;;4916538;29;20261;-63
2024/02/15 03:47:46;;;;;;;2.63;2.17;;;10.30;49.20;;;;;;4916954;29;20218;-63
2024/02/15 03:50:14;;;;;;;2.00;1.90;;;10.30;49.30;;;;;;4918418;29;20700;-63
2024/02/15 03:52:41;;;;;;;2.30;2.10;;;10.20;49.20;;;;;;4918730;29;20293;-64
2024/02/15 03:55:07;;;;;;;2.40;2.20;;;10.30;49.30;;;;;;4915095;29;20217;-63
2024/02/15 03:57:34;;;;;;;2.37;2.17;;;10.10;49.20;;;;;;4916485;29;20243;-63
2024/02/15 04:00:00;;;;;;;2.10;1.90;;;10.20;49.20;;;;;;4915240;29;20218;-63
2024/02/15 04:02:28;;;;;;;2.40;2.20;;;10.20;49.20;;;;;;4915874;29;20233;-63
2024/02/15 04:04:55;;;;;;;2.10;2.00;;;10.20;49.20;;;;;;4916413;29;20247;-63
2024/02/15 04:07:21;;;;;;;4.10;2.20;;;10.10;49.10;;;;;;4916569;29;20303;-63
2024/02/15 04:09:48;;;;;;;2.83;2.13;;;10.10;49.10;;;;;;4916546;29;20566;-63
2024/02/15 04:12:14;;;;;;;5.80;2.53;;;10.10;49.10;;;;;;4911961;29;20237;-64
2024/02/15 04:14:41;;;;;;;2.73;2.27;;;10.10;49.60;;;;;;4914404;29;20668;-63
2024/02/15 04:17:08;;;;;;;2.70;2.50;;;10.00;49.60;;;;;;4916121;29;20260;-63
2024/02/15 04:19:34;;;;;;;3.10;2.37;;;9.90;50.80;;;;;;4915797;29;20296;-63
2024/02/15 04:22:04;;;;;;;2.60;2.10;;;9.90;51.10;;;;;;4915899;29;20230;-63
2024/02/15 04:24:31;;;;;;;3.67;2.27;;;9.90;50.90;;;;;;4916697;29;20297;-64
2024/02/15 04:26:58;;;;;;;2.57;2.37;;;9.90;51.00;;;;;;4916459;29;20715;-63
2024/02/15 04:29:25;;;;;;;3.13;2.30;;;9.80;51.00;;;;;;4912768;29;20209;-63
2024/02/15 04:31:54;;;;;;;3.33;2.23;;;9.80;50.70;;;;;;4915928;29;20261;-63
2024/02/15 04:34:21;;;;;;;3.67;2.37;;;9.80;50.50;;;;;;4916025;29;20635;-63
2024/02/15 04:36:49;;;;;;;2.37;2.17;;;9.80;50.50;;;;;;4916069;29;20653;-63
2024/02/15 04:39:23;;;;;;;2.70;2.50;;;9.70;50.70;;;;;;4915684;29;20235;-63
2024/02/15 04:41:50;;;;;;;2.60;2.40;;;9.60;50.80;;;;;;4916425;29;20246;-63
2024/02/15 04:44:20;;;;;;;2.30;2.10;;;9.60;50.70;;;;;;4911847;29;20220;-63
2024/02/15 04:46:46;;;;;;;2.73;2.07;;;9.60;50.80;;;;;;4907518;29;20268;-63
2024/02/15 04:49:13;;;;;;;2.40;2.13;;;9.60;50.80;;;;;;4915926;29;20218;-63
2024/02/15 04:51:40;;;;;;;2.97;2.03;;;9.60;50.90;;;;;;4915352;29;20264;-63
2024/02/15 04:54:07;;;;;;;2.00;1.80;;;9.50;50.90;;;;;;4915553;29;20303;-63
2024/02/15 04:56:35;;;;;;;2.30;2.10;;;9.50;51.00;;;;;;4907607;29;20588;-63
2024/02/15 04:59:02;;;;;;;2.50;2.30;;;9.50;51.00;;;;;;4916129;29;20291;-63
2024/02/15 05:01:33;;;;;;;2.87;2.17;;;9.50;51.10;;;;;;4914934;29;20323;-63
2024/02/15 05:03:59;;;;;;;3.03;2.40;;;9.50;51.00;;;;;;4913083;29;20643;-63
2024/02/15 05:06:29;;;;;;;5.93;2.47;;;9.40;51.20;;;;;;4915459;29;20215;-63
2024/02/15 05:08:57;;;;;;;4.07;2.20;;;9.40;51.20;;;;;;4915567;29;20231;-63
2024/02/15 05:11:24;;;;;;;2.40;1.87;;;9.40;51.30;;;;;;4907394;29;20260;-63
2024/02/15 05:13:50;;;;;;;1.87;1.77;;;9.30;51.20;;;;;;4922542;29;20216;-63
2024/02/15 05:16:17;;;;;;;3.30;2.23;;;9.40;51.30;;;;;;4916761;29;20209;-63
2024/02/15 05:18:45;;;;;;;4.03;2.50;;;9.30;51.20;;;;;;4916599;29;20300;-63
2024/02/15 05:21:11;;;;;;;2.90;2.23;;;9.40;51.00;;;;;;4910972;29;20226;-63
2024/02/15 05:23:39;;;;;;;2.77;2.10;;;9.30;51.00;;;;;;4914455;29;20259;-63
2024/02/15 05:26:06;;;;;;;2.63;2.43;;;9.40;51.10;;;;;;4907090;29;20216;-63
2024/02/15 05:28:32;;;;;;;2.30;2.10;;;9.30;50.90;;;;;;4915234;29;20265;-63
2024/02/15 05:30:59;;;;;;;2.33;2.10;;;9.30;51.00;;;;;;4915261;29;20254;-63
2024/02/15 05:33:25;;;;;;;2.50;2.30;;;9.30;51.10;;;;;;4915733;29;20216;-63
2024/02/15 05:35:52;;;;;;;2.20;2.10;;;9.20;51.30;;;;;;4915334;29;20251;-63
2024/02/15 05:38:19;;;;;;;2.57;2.37;;;9.30;51.10;;;;;;4910670;29;24970;-63
2024/02/15 05:40:45;;;;;;;2.13;2.00;;;9.30;51.10;;;;;;4914919;29;20240;-63
2024/02/15 05:43:13;;;;;;;2.40;2.20;;;9.20;51.00;;;;;;4915287;29;20238;-63
2024/02/15 05:45:40;;;;;;;2.50;2.30;;;9.30;51.00;;;;;;4907454;29;20224;-63
2024/02/15 05:48:12;;;;;;;3.57;2.20;;;9.20;51.00;;;;;;4915195;29;20209;-63
2024/02/15 05:50:38;;;;;;;2.43;2.20;;;9.20;51.00;;;;;;4915674;29;20256;-63
2024/02/15 05:53:07;;;;;;;2.87;2.40;;;9.10;51.30;;;;;;4914672;29;20287;-63
2024/02/15 05:55:36;;;;;;;2.77;2.37;;;9.20;51.20;;;;;;4905194;29;20631;-63
2024/02/15 05:58:02;;;;;;;2.17;1.90;;;9.20;51.20;;;;;;4914457;29;20300;-62
2024/02/15 06:00:29;;;;;;;3.30;2.27;;;9.10;51.10;;;;;;4914988;29;20264;-62
2024/02/15 06:02:56;;;;;;;2.40;2.20;;;9.10;51.30;;;;;;4915343;29;20244;-62
2024/02/15 06:05:23;;;;;;;2.40;2.20;;;9.10;51.00;;;;;;4914545;29;20212;-62
2024/02/15 06:07:50;;;;;;;4.43;2.40;;;9.20;51.00;;;;;;4915953;29;20860;-62
2024/02/15 06:10:17;;;;;;;3.13;2.23;;;9.10;51.80;;;;;;4914859;29;20212;-62
2024/02/15 06:12:44;;;;;;;3.17;2.40;;;9.10;51.30;;;;;;4914546;29;20228;-63
2024/02/15 06:15:14;;;;;;;4.37;2.30;;;9.10;51.10;;;;;;4910021;29;24641;-62
2024/02/15 06:17:41;;;;;;;2.93;2.50;;;9.10;51.20;;;;;;4914736;29;20275;-62
2024/02/15 06:20:07;;;;;;;2.67;2.47;;;9.10;51.60;;;;;;4914896;29;20267;-62
2024/02/15 06:22:35;;;;;;;2.60;2.40;;;9.20;50.80;;;;;;4911230;29;20291;-62
2024/02/15 06:25:01;;;;;;;4.10;2.90;;;9.10;51.20;;;;;;4914843;29;20589;-63
2024/02/15 06:27:28;;;;;;;5.27;2.70;;;9.00;51.30;;;;;;4906664;29;20208;-62
2024/02/15 06:41:03;;;;;;;3.70;2.77;;;9.10;51.80;;;;;;4902876;29;20213;-62
2024/02/15 06:43:29;;;;;;;3.67;2.77;;;9.20;51.70;;;;;;4914537;29;20216;-62
2024/02/15 06:45:56;;;;;;;4.97;2.90;;;9.20;51.50;;;;;;4918123;29;20267;-62
2024/02/15 06:48:22;;;;;;;5.20;3.13;;;9.30;51.70;;;;;;4917854;29;20212;-63
2024/02/15 06:50:49;;;;;;;4.10;2.73;;;9.30;51.00;;;;;;4913561;29;20507;-62
2024/02/15 06:53:16;;;;;;;5.00;3.17;;;9.30;51.10;;;;;;4917057;29;20208;-62
2024/02/15 06:55:42;;;;;;;3.33;3.03;;;9.30;51.10;;;;;;4917273;29;20215;-62
2024/02/15 06:58:09;;;;;;;3.20;2.90;;;9.40;51.40;;;;;;4918235;29;20226;-62
2024/02/15 07:00:36;;;;;;;3.90;2.53;;;9.40;51.40;;;;;;4917352;29;20299;-62
2024/02/15 07:03:02;;;;;;;5.13;2.93;;;9.50;50.60;;;;;;4907976;29;20248;-62
2024/02/15 07:05:29;;;;;;;3.63;2.60;;;9.40;50.70;;;;;;4913562;29;20667;-62
2024/02/15 07:07:56;;;;;;;4.17;2.70;;;9.50;50.20;;;;;;4911008;29;20589;-62
2024/02/15 07:10:23;;;;;;;5.33;2.23;;;9.50;49.90;;;;;;4917166;29;20670;-62
2024/02/15 07:12:49;;;;;;;3.27;2.70;;;9.60;49.70;;;;;;4917345;29;20236;-62
2024/02/15 07:15:17;;;;;;;3.53;2.90;;;9.60;50.10;;;;;;4917862;29;20220;-62
2024/02/15 07:17:43;;;;;;;2.60;2.40;;;9.60;49.70;;;;;;4917032;29;20248;-62
2024/02/15 07:20:10;;;;;;;4.57;2.63;;;9.70;49.60;;;;;;4913720;29;20245;-62
2024/02/15 07:22:38;;;;;;;3.97;2.80;;;9.80;49.50;;;;;;4916323;29;20229;-62
2024/02/15 07:25:05;;;;;;;4.47;2.50;;;9.80;49.10;;;;;;4917033;29;20216;-62
2024/02/15 07:27:34;;;;;;;4.80;2.73;;;9.80;49.00;;;;;;4914601;29;20287;-62
2024/02/15 07:30:01;;;;;;;2.90;2.50;;;9.70;49.50;;;;;;4914750;29;20217;-62
2024/02/15 07:32:28;;;;;;;4.37;2.50;;;9.80;49.10;;;;;;4916782;29;20891;-61
2024/02/15 07:34:55;;;;;;;5.70;2.80;;;9.80;49.30;;;;;;4911259;29;20597;-62
2024/02/15 07:37:25;;;;;;;7.33;3.30;;;9.80;49.40;;;;;;4910613;29;20264;-63
2024/02/15 07:39:52;;;;;;;5.20;2.87;;;9.90;49.60;;;;;;4896400;29;20320;-62
2024/02/15 07:42:18;;;;;;;3.20;2.70;;;10.00;48.40;;;;;;4912435;29;20267;-62
2024/02/15 07:44:45;;;;;;;4.33;3.40;;;10.10;47.90;;;;;;4910810;29;20212;-62
2024/02/15 07:47:11;;;;;;;6.10;2.73;;;10.20;47.50;;;;;;4913102;29;20245;-62
2024/02/15 07:49:38;;;;;;;5.57;2.80;;;10.20;48.00;;;;;;4915635;29;20209;-62
2024/02/15 07:52:05;;;;;;;3.27;2.60;;;10.30;47.30;;;;;;4914830;29;20233;-62
2024/02/15 07:54:33;;;;;;;3.80;2.83;;;10.40;46.50;;;;;;4915703;29;20210;-62
2024/02/15 07:56:59;;;;;;;2.90;2.57;;;10.40;46.70;;;;;;4914114;29;20415;-62
2024/02/15 07:59:26;;;;;;;4.83;2.70;;;10.40;46.60;;;;;;4908115;29;20305;-62
2024/02/15 08:01:52;;;;;;;3.07;2.47;;;10.40;46.40;;;;;;4909710;29;20256;-62
2024/02/15 08:04:19;;;;;;;4.53;2.43;;;10.40;46.60;;;;;;4910551;29;20288;-62
2024/02/15 08:06:45;;;;;;;5.37;2.60;;;10.50;46.00;;;;;;4911256;29;20213;-62
2024/02/15 08:09:13;;;;;;;3.93;2.50;;;10.50;46.80;;;;;;4915520;29;20244;-63
2024/02/15 08:11:40;;;;;;;4.07;3.30;;;10.50;47.10;;;;;;4908285;29;20295;-62
2024/02/15 08:14:09;;;;;;;7.13;3.50;;;10.60;47.30;;;;;;4914702;29;20242;-62
2024/02/15 08:16:36;;;;;;;3.70;2.70;;;10.60;46.90;;;;;;4907146;29;20234;-62
2024/02/15 08:19:03;;;;;;;3.27;2.20;;;10.70;47.10;;;;;;4908257;29;20325;-62
2024/02/15 08:21:32;;;;;;;2.30;2.10;;;10.80;46.40;;;;;;4910877;29;20813;-62
2024/02/15 08:23:59;;;;;;;4.40;2.30;;;10.80;45.50;;;;;;4909637;29;20682;-63
2024/02/15 08:26:25;;;;;;;3.30;2.30;;;10.80;45.20;;;;;;4907548;29;20300;-62
2024/02/15 08:28:52;;;;;;;3.90;2.40;;;10.80;45.20;;;;;;4909928;29;20214;-62
2024/02/15 08:31:19;;;;;;;2.93;2.73;;;10.90;45.20;;;;;;4909720;29;20741;-62
2024/02/15 08:33:45;;;;;;;3.50;2.50;;;10.90;45.30;;;;;;4910958;29;20248;-62
2024/02/15 08:36:13;;;;;;;4.33;2.60;;;10.90;45.40;;;;;;4902680;29;20214;-62
2024/02/15 08:38:41;;;;;;;3.60;2.90;;;10.90;45.40;;;;;;4906415;29;20426;-62
2024/02/15 08:41:08;;;;;;;2.30;2.10;;;11.00;44.90;;;;;;4911974;29;20234;-62
2024/02/15 08:43:34;;;;;;;2.60;2.40;;;11.10;45.30;;;;;;4906104;29;20217;-62
2024/02/15 08:46:01;;;;;;;2.33;2.10;;;11.40;44.70;;;;;;4912048;29;20732;-62
2024/02/15 08:48:28;;;;;;;2.90;2.10;;;12.00;43.70;;;;;;4906587;29;20210;-62
2024/02/15 08:50:54;;;;;;;3.60;2.20;;;12.40;42.10;;;;;;4897243;29;20208;-62
2024/02/15 08:53:21;;;;;;;3.13;2.00;;;12.50;42.10;;;;;;4907724;29;20339;-63
2024/02/15 08:55:47;;;;;;;3.37;2.30;;;12.80;41.70;;;;;;4909979;29;20594;-62
2024/02/15 08:58:14;;;;;;;3.93;2.43;;;13.10;41.10;;;;;;4910643;29;20236;-63
2024/02/15 09:00:44;;;;;;;3.17;2.30;;;13.50;40.10;;;;;;4904133;29;20713;-63
2024/02/15 09:03:11;;;;;;;3.13;2.33;;;13.50;39.70;;;;;;4912000;29;20227;-63
2024/02/15 09:05:37;;;;;;;3.97;2.17;;;13.90;39.70;;;;;;4907163;29;20222;-63
2024/02/15 09:08:04;;;;;;;4.43;2.50;;;14.10;39.50;;;;;;4906881;29;20206;-63
2024/02/15 09:10:31;;;;;;;4.43;2.43;;;14.30;38.70;;;;;;4909642;29;20733;-63
2024/02/15 09:12:57;;;;;;;2.77;2.30;;;14.40;37.70;;;;;;4906603;29;20249;-63
2024/02/15 09:15:24;;;;;;;2.13;2.00;;;14.60;38.40;;;;;;4907088;29;20260;-64
2024/02/15 09:17:51;;;;;;;4.23;2.03;;;14.50;37.80;;;;;;4906496;29;20217;-63
2024/02/15 09:20:18;;;;;;;2.67;2.40;;;14.60;38.00;;;;;;4914972;29;20228;-63
2024/02/15 09:22:46;;;;;;;2.40;2.00;;;14.90;38.10;;;;;;4905406;29;20236;-64
2024/02/15 09:25:13;;;;;;;2.47;2.10;;;15.10;38.30;;;;;;4908772;29;20217;-63
2024/02/15 09:27:39;;;;;;;2.30;2.10;;;15.30;37.70;;;;;;4911926;29;20201;-63
2024/02/15 09:30:09;;;;;;;2.43;2.10;;;15.20;37.70;;;;;;4904802;29;20207;-63
2024/02/15 09:32:35;;;;;;;3.03;2.73;;;15.40;38.30;;;;;;4915244;29;20255;-63
2024/02/15 09:35:02;;;;;;;3.77;2.23;;;15.60;38.30;;;;;;4901807;29;20297;-63
2024/02/15 09:37:29;;;;;;;2.53;2.33;;;15.80;37.70;;;;;;4892357;29;20237;-63
2024/02/15 09:39:56;;;;;;;4.13;2.20;;;16.10;37.00;;;;;;4895575;29;20235;-63
2024/02/15 09:42:23;;;;;;;3.63;2.13;;;16.30;36.80;;;;;;4905468;29;20244;-63
2024/02/15 09:44:51;;;;;;;2.30;2.03;;;16.40;37.00;;;;;;4911286;29;20254;-63
2024/02/15 09:47:17;;;;;;;4.53;2.10;;;16.50;37.50;;;;;;4905410;29;20217;-63
2024/02/15 09:49:44;;;;;;;3.10;2.07;;;16.70;37.20;;;;;;4910449;29;20258;-63
2024/02/15 09:52:11;;;;;;;2.20;1.80;;;16.90;36.70;;;;;;4893821;29;20230;-63
2024/02/15 09:54:38;;;;;;;2.77;1.83;;;17.10;36.60;;;;;;4909040;29;20233;-63
2024/02/15 09:57:05;;;;;;;2.00;1.80;;;17.20;36.90;;;;;;4908440;29;20266;-64
2024/02/15 09:59:31;;;;;;;2.73;1.90;;;17.30;36.10;;;;;;4914424;29;20764;-63
2024/02/15 10:01:58;;;;;;;5.07;1.90;;;17.70;35.50;;;;;;4907835;29;20266;-63
2024/02/15 10:04:25;;;;;;;2.77;1.90;;;17.80;34.70;;;;;;4914414;29;20213;-63
2024/02/15 10:06:52;;;;;;;3.27;1.70;;;17.50;34.40;;;;;;4909313;29;20259;-63
2024/02/15 10:09:18;;;;;;;5.37;1.77;;;17.60;34.90;;;;;;4913684;29;20273;-63
2024/02/15 10:11:45;;;;;;;5.20;2.20;;;17.70;34.40;;;;;;4910986;29;20771;-62
2024/02/15 10:14:12;;;;;;;1.90;1.80;;;17.60;35.10;;;;;;4910052;29;20301;-63
2024/02/15 10:16:38;;;;;;;2.70;1.40;;;17.60;35.10;;;;;;4927164;29;20274;-68
2024/02/15 10:19:05;;;;;;;1.70;1.20;;;17.90;34.90;;;;;;4911137;29;20242;-63
2024/02/15 10:21:35;;;;;;;2.77;1.50;;;17.70;34.40;;;;;;4918763;29;20316;-63
2024/02/15 10:24:02;;;;;;;3.27;1.20;;;17.90;33.80;;;;;;4918003;29;20221;-63
2024/02/15 10:26:29;;;;;;;1.43;1.17;;;18.00;34.60;;;;;;4918056;29;20300;-63
2024/02/15 10:28:56;;;;;;;1.73;1.63;;;18.30;34.00;;;;;;4913417;29;20577;-63
2024/02/15 10:31:22;;;;;;;1.70;1.17;;;18.10;34.40;;;;;;4917120;29;20708;-63
2024/02/15 10:33:49;;;;;;;1.77;1.40;;;18.40;34.10;;;;;;4918163;29;20274;-63
2024/02/15 10:36:16;;;;;;;1.20;1.10;;;18.50;33.50;;;;;;4918717;29;20602;-63
2024/02/15 10:38:43;;;;;;;1.27;1.13;;;18.90;33.60;;;;;;4918237;29;20426;-63
2024/02/15 10:41:10;;;;;;;2.27;1.20;;;19.30;32.60;;;;;;4917996;29;20246;-63
2024/02/15 10:43:38;;;;;;;1.90;1.20;;;18.90;32.40;;;;;;4917995;29;20311;-63
2024/02/15 10:46:05;;;;;;;1.90;1.15;;;19.20;32.30;;;;;;4913168;29;20214;-63
2024/02/15 10:48:33;;;;;;;2.58;1.60;;;19.40;32.20;;;;;;4916428;29;20289;-63
2024/02/15 10:51:00;;;;;;;3.78;1.45;;;19.60;30.70;;;;;;4917636;29;20271;-63
2024/02/15 10:53:27;;;;;;;1.95;1.20;;;21.00;28.70;;;;;;4917949;29;20590;-63
2024/02/15 10:55:53;;;;;;;1.73;1.23;;;22.90;26.60;;;;;;4918017;29;20221;-63
2024/02/15 10:58:20;;;;;;;1.40;1.20;;;25.30;25.00;;;;;;4917296;29;20211;-64
2024/02/15 11:00:47;;;;;;;1.88;1.20;;;27.30;23.30;;;;;;4917097;29;20234;-63
2024/02/15 11:03:13;;;;;;;1.70;1.40;;;27.30;22.70;;;;;;4917278;29;20244;-63
2024/02/15 11:05:40;;;;;;;1.60;1.42;;;27.20;23.70;;;;;;4905955;29;20309;-63
2024/02/15 11:08:07;;;;;;;2.45;1.10;;;25.70;25.10;;;;;;4917238;29;20693;-63
2024/02/15 11:10:34;;;;;;;2.00;1.27;;;24.60;25.80;;;;;;4917190;29;20289;-63
2024/02/15 11:13:00;;;;;;;1.33;1.10;;;23.50;26.80;;;;;;4920512;29;20792;-63
2024/02/15 11:15:27;;;;;;;1.40;1.00;;;23.20;27.20;;;;;;4921816;29;20215;-63
2024/02/15 11:17:56;;;;;;;1.13;1.02;;;22.70;27.60;;;;;;4919190;29;20266;-63
2024/02/15 11:20:23;;;;;;;1.25;1.15;;;22.80;27.50;;;;;;4911903;29;20254;-64
2024/02/15 11:22:50;;;;;;;2.28;1.23;;;22.80;27.90;;;;;;4916762;29;20230;-64
2024/02/15 11:25:16;;;;;;;1.38;1.10;;;22.50;27.50;;;;;;4909916;29;20258;-64
2024/02/15 11:27:43;;;;;;;1.70;1.20;;;22.00;28.20;;;;;;4916069;29;20214;-64
2024/02/15 11:30:12;;;;;;;1.10;1.00;;;21.90;28.20;;;;;;4912506;29;20589;-64
2024/02/15 11:32:39;;;;;;;2.70;1.08;;;22.00;28.20;;;;;;4914992;29;20226;-64
2024/02/15 11:35:10;;;;;;;1.67;1.10;;;22.00;28.00;;;;;;4916407;29;20297;-64
2024/02/15 11:37:37;;;;;;;4.20;1.40;;;22.50;27.70;;;;;;4916247;29;20226;-64
2024/02/15 11:40:03;;;;;;;2.50;1.30;;;22.50;27.70;;;;;;4916281;29;20226;-64
2024/02/15 11:42:30;;;;;;;1.67;0.90;;;22.80;27.50;;;;;;4915880;29;20412;-64
2024/02/15 11:44:57;;;;;;;2.80;1.15;;;22.80;27.00;;;;;;4908496;29;20215;-64
2024/02/15 11:47:23;;;;;;;1.27;1.13;;;22.70;26.90;;;;;;4914255;29;20222;-63
2024/02/15 11:49:50;;;;;;;1.85;1.30;;;22.50;27.70;;;;;;4913533;29;20211;-64
2024/02/15 11:52:17;;;;;;;1.15;1.05;;;22.40;27.10;;;;;;4915720;29;20246;-64
2024/02/15 11:54:44;;;;;;;1.55;1.23;;;22.50;26.90;;;;;;4916457;29;20210;-64
2024/02/15 11:57:13;;;;;;;1.00;0.90;;;22.10;27.10;;;;;;4916595;29;20210;-64
2024/02/15 11:59:52;;;;;;;1.27;1.00;;;22.00;27.30;;;;;;4916333;29;20338;-64
2024/02/15 12:18:45;;;;;;;2.53;1.50;;;21.30;27.70;;;;;;4916183;29;20233;-64
2024/02/15 12:21:12;;;;;;;1.73;1.17;;;21.10;28.20;;;;;;4916330;29;20317;-64
2024/02/15 12:23:40;;;;;;;2.33;1.67;;;20.70;28.60;;;;;;4914022;29;20222;-64
2024/02/15 12:26:07;;;;;;;2.20;1.30;;;21.00;28.30;;;;;;4905924;29;20214;-64
2024/02/15 12:28:34;;;;;;;0.88;0.88;;;21.00;28.00;;;;;;4913549;29;20228;-64
2024/02/15 12:31:01;;;;;;;1.60;1.10;;;21.00;28.00;;;;;;4910370;29;20210;-64
2024/02/15 12:33:27;;;;;;;1.35;0.88;;;20.10;28.50;;;;;;4912779;29;20262;-64
2024/02/15 12:35:54;;;;;;;1.40;1.30;;;19.50;29.50;;;;;;4915747;29;20214;-64
2024/02/15 12:38:21;;;;;;;1.20;1.10;;;19.90;29.20;;;;;;4916032;29;20605;-64
2024/02/15 12:40:47;;;;;;;1.27;1.17;;;20.20;28.90;;;;;;4914842;29;20231;-64
2024/02/15 12:43:14;;;;;;;1.05;0.95;;;19.80;29.50;;;;;;4911877;29;20278;-64
2024/02/15 12:45:41;;;;;;;1.20;1.10;;;19.20;29.60;;;;;;4912941;29;20214;-64
2024/02/15 12:48:07;;;;;;;1.23;1.15;;;19.30;29.30;;;;;;4915496;29;20233;-64
2024/02/15 12:50:34;;;;;;;1.25;1.10;;;20.20;28.60;;;;;;4915076;29;20286;-64
2024/02/15 12:53:02;;;;;;;1.42;1.27;;;20.70;28.00;;;;;;4915337;29;20266;-63
2024/02/15 12:55:29;;;;;;;1.17;1.08;;;20.60;28.00;;;;;;4917559;29;20309;-64
2024/02/15 12:57:57;;;;;;;2.30;1.25;;;20.80;28.10;;;;;;4913877;29;20218;-65
2024/02/15 13:00:28;;;;;;;2.17;1.25;;;20.60;28.20;;;;;;4909958;29;20229;-64
2024/02/15 13:02:55;;;;;;;1.83;1.20;;;20.30;28.60;;;;;;4908382;29;20237;-64
2024/02/15 13:05:23;;;;;;;1.30;1.13;;;19.90;28.70;;;;;;4905643;29;20342;-64
2024/02/15 13:07:49;;;;;;;1.52;1.10;;;19.50;29.30;;;;;;4903761;29;20214;-64
2024/02/15 13:10:16;;;;;;;3.35;1.27;;;19.40;29.40;;;;;;4914867;29;20210;-64
2024/02/15 13:12:43;;;;;;;2.08;1.27;;;19.90;29.50;;;;;;4905260;29;20230;-64
2024/02/15 13:15:11;;;;;;;1.67;1.13;;;20.20;28.80;;;;;;4906851;29;20236;-64
2024/02/15 13:17:37;;;;;;;1.48;1.00;;;19.80;29.50;;;;;;4912498;29;20206;-64